sensor_id;sensor_type;location;lat;lon;timestamp;temperature;humidity
43346;DHT22;28937;51.160;4.146;2023-06-10T00:01:41;25.60;72.80
43346;DHT22;28937;51.160;4.146;2023-06-10T00:04:08;25.60;72.80
43346;DHT22;28937;51.160;4.146;2023-06-10T00:06:34;25.60;73.00
43346;DHT22;28937;51.160;4.146;2023-06-10T00:09:04;25.50;73.00
43346;DHT22;28937;51.160;4.146;2023-06-10T00:11:33;25.60;73.40
43346;DHT22;28937;51.160;4.146;2023-06-10T00:13:59;25.50;73.40
43346;DHT22;28937;51.160;4.146;2023-06-10T00:16:25;25.50;73.50
43346;DHT22;28937;51.160;4.146;2023-06-10T00:18:51;25.50;73.60
43346;DHT22;28937;51.160;4.146;2023-06-10T00:21:17;25.50;73.70
43346;DHT22;28937;51.160;4.146;2023-06-10T00:23:42;25.40;73.70
43346;DHT22;28937;51.160;4.146;2023-06-10T00:26:08;25.40;73.80
43346;DHT22;28937;51.160;4.146;2023-06-10T00:28:34;25.50;74.00
43346;DHT22;28937;51.160;4.146;2023-06-10T00:31:00;25.40;74.10
43346;DHT22;28937;51.160;4.146;2023-06-10T00:33:25;25.40;74.20
43346;DHT22;28937;51.160;4.146;2023-06-10T00:35:51;25.40;74.20
43346;DHT22;28937;51.160;4.146;2023-06-10T00:38:17;25.30;74.20
43346;DHT22;28937;51.160;4.146;2023-06-10T00:40:43;25.30;74.30
43346;DHT22;28937;51.160;4.146;2023-06-10T00:43:09;25.30;74.40
43346;DHT22;28937;51.160;4.146;2023-06-10T00:45:34;25.30;74.40
43346;DHT22;28937;51.160;4.146;2023-06-10T00:48:00;25.30;74.50
43346;DHT22;28937;51.160;4.146;2023-06-10T00:50:27;25.30;74.60
43346;DHT22;28937;51.160;4.146;2023-06-10T00:52:54;25.20;74.60
43346;DHT22;28937;51.160;4.146;2023-06-10T00:55:20;25.20;74.80
43346;DHT22;28937;51.160;4.146;2023-06-10T00:57:46;25.20;74.90
43346;DHT22;28937;51.160;4.146;2023-06-10T01:00:14;25.10;74.90
43346;DHT22;28937;51.160;4.146;2023-06-10T01:02:40;25.10;75.00
43346;DHT22;28937;51.160;4.146;2023-06-10T01:05:06;25.10;75.10
43346;DHT22;28937;51.160;4.146;2023-06-10T01:08:16;25.10;75.10
43346;DHT22;28937;51.160;4.146;2023-06-10T01:12:59;25.10;75.30
43346;DHT22;28937;51.160;4.146;2023-06-10T01:15:31;25.10;75.40
43346;DHT22;28937;51.160;4.146;2023-06-10T01:17:57;25.10;75.50
43346;DHT22;28937;51.160;4.146;2023-06-10T01:20:25;25.00;75.60
43346;DHT22;28937;51.160;4.146;2023-06-10T01:22:55;25.00;75.60
43346;DHT22;28937;51.160;4.146;2023-06-10T01:25:22;25.00;75.70
43346;DHT22;28937;51.160;4.146;2023-06-10T01:28:15;25.00;75.80
43346;DHT22;28937;51.160;4.146;2023-06-10T01:33:28;24.90;75.90
43346;DHT22;28937;51.160;4.146;2023-06-10T01:35:56;24.90;75.90
43346;DHT22;28937;51.160;4.146;2023-06-10T01:38:23;24.90;76.10
43346;DHT22;28937;51.160;4.146;2023-06-10T01:40:53;24.90;76.10
43346;DHT22;28937;51.160;4.146;2023-06-10T01:43:21;24.90;76.20
43346;DHT22;28937;51.160;4.146;2023-06-10T01:45:47;24.90;76.30
43346;DHT22;28937;51.160;4.146;2023-06-10T01:48:12;24.90;76.30
43346;DHT22;28937;51.160;4.146;2023-06-10T01:50:38;24.80;76.30
43346;DHT22;28937;51.160;4.146;2023-06-10T01:53:04;24.80;76.40
43346;DHT22;28937;51.160;4.146;2023-06-10T01:55:31;24.80;76.50
43346;DHT22;28937;51.160;4.146;2023-06-10T01:57:56;24.80;76.60
43346;DHT22;28937;51.160;4.146;2023-06-10T02:00:22;24.80;76.60
43346;DHT22;28937;51.160;4.146;2023-06-10T02:02:47;24.80;76.70
43346;DHT22;28937;51.160;4.146;2023-06-10T02:05:13;24.80;76.70
43346;DHT22;28937;51.160;4.146;2023-06-10T02:07:38;24.70;76.70
43346;DHT22;28937;51.160;4.146;2023-06-10T02:10:05;24.70;77.50
43346;DHT22;28937;51.160;4.146;2023-06-10T02:12:31;24.60;76.90
43346;DHT22;28937;51.160;4.146;2023-06-10T02:14:57;24.60;77.00
43346;DHT22;28937;51.160;4.146;2023-06-10T02:17:22;24.60;77.10
43346;DHT22;28937;51.160;4.146;2023-06-10T02:19:48;24.60;77.10
43346;DHT22;28937;51.160;4.146;2023-06-10T02:22:24;24.60;77.20
43346;DHT22;28937;51.160;4.146;2023-06-10T02:24:49;24.60;77.30
43346;DHT22;28937;51.160;4.146;2023-06-10T02:27:15;24.60;77.30
43346;DHT22;28937;51.160;4.146;2023-06-10T02:29:42;24.60;77.40
43346;DHT22;28937;51.160;4.146;2023-06-10T02:32:08;24.50;77.40
43346;DHT22;28937;51.160;4.146;2023-06-10T02:34:34;24.50;77.50
43346;DHT22;28937;51.160;4.146;2023-06-10T02:37:00;24.50;77.60
43346;DHT22;28937;51.160;4.146;2023-06-10T02:39:27;24.50;77.70
43346;DHT22;28937;51.160;4.146;2023-06-10T02:41:52;24.40;77.70
43346;DHT22;28937;51.160;4.146;2023-06-10T02:44:18;24.40;77.80
43346;DHT22;28937;51.160;4.146;2023-06-10T02:46:44;24.40;77.80
43346;DHT22;28937;51.160;4.146;2023-06-10T02:49:11;24.40;78.00
43346;DHT22;28937;51.160;4.146;2023-06-10T02:51:36;24.40;78.10
43346;DHT22;28937;51.160;4.146;2023-06-10T02:54:02;24.40;78.20
43346;DHT22;28937;51.160;4.146;2023-06-10T02:56:28;24.30;78.20
43346;DHT22;28937;51.160;4.146;2023-06-10T02:58:53;24.30;78.40
43346;DHT22;28937;51.160;4.146;2023-06-10T03:01:19;24.30;78.40
43346;DHT22;28937;51.160;4.146;2023-06-10T03:03:45;24.30;78.50
43346;DHT22;28937;51.160;4.146;2023-06-10T03:06:12;24.30;78.60
43346;DHT22;28937;51.160;4.146;2023-06-10T03:08:38;24.30;78.70
43346;DHT22;28937;51.160;4.146;2023-06-10T03:11:04;24.20;78.80
43346;DHT22;28937;51.160;4.146;2023-06-10T03:13:30;24.20;78.80
43346;DHT22;28937;51.160;4.146;2023-06-10T03:15:55;24.20;78.90
43346;DHT22;28937;51.160;4.146;2023-06-10T03:18:25;24.20;79.00
43346;DHT22;28937;51.160;4.146;2023-06-10T03:20:51;24.10;79.00
43346;DHT22;28937;51.160;4.146;2023-06-10T03:23:17;24.10;79.10
43346;DHT22;28937;51.160;4.146;2023-06-10T03:25:44;24.10;79.20
43346;DHT22;28937;51.160;4.146;2023-06-10T03:28:09;24.10;79.30
43346;DHT22;28937;51.160;4.146;2023-06-10T03:30:35;24.10;79.30
43346;DHT22;28937;51.160;4.146;2023-06-10T03:33:01;24.10;79.40
43346;DHT22;28937;51.160;4.146;2023-06-10T03:35:26;24.10;79.50
43346;DHT22;28937;51.160;4.146;2023-06-10T03:37:52;24.10;79.60
43346;DHT22;28937;51.160;4.146;2023-06-10T03:40:17;24.00;79.60
43346;DHT22;28937;51.160;4.146;2023-06-10T03:42:43;24.00;79.70
43346;DHT22;28937;51.160;4.146;2023-06-10T03:45:10;24.00;79.80
43346;DHT22;28937;51.160;4.146;2023-06-10T03:47:36;24.00;79.90
43346;DHT22;28937;51.160;4.146;2023-06-10T03:50:05;24.00;79.90
43346;DHT22;28937;51.160;4.146;2023-06-10T03:52:31;24.00;80.00
43346;DHT22;28937;51.160;4.146;2023-06-10T03:54:57;23.90;80.00
43346;DHT22;28937;51.160;4.146;2023-06-10T03:57:22;23.90;80.10
43346;DHT22;28937;51.160;4.146;2023-06-10T03:59:48;23.90;80.20
43346;DHT22;28937;51.160;4.146;2023-06-10T04:02:13;23.90;80.20
43346;DHT22;28937;51.160;4.146;2023-06-10T04:04:39;23.90;80.40
43346;DHT22;28937;51.160;4.146;2023-06-10T04:07:05;23.80;80.40
43346;DHT22;28937;51.160;4.146;2023-06-10T04:09:30;23.80;80.50
43346;DHT22;28937;51.160;4.146;2023-06-10T04:11:56;23.80;80.50
43346;DHT22;28937;51.160;4.146;2023-06-10T04:14:21;23.80;80.70
43346;DHT22;28937;51.160;4.146;2023-06-10T04:16:47;23.80;80.70
43346;DHT22;28937;51.160;4.146;2023-06-10T04:19:13;23.80;80.70
43346;DHT22;28937;51.160;4.146;2023-06-10T04:21:38;23.70;80.80
43346;DHT22;28937;51.160;4.146;2023-06-10T04:24:04;23.80;80.90
43346;DHT22;28937;51.160;4.146;2023-06-10T04:26:30;23.70;80.90
43346;DHT22;28937;51.160;4.146;2023-06-10T04:28:55;23.70;81.00
43346;DHT22;28937;51.160;4.146;2023-06-10T04:31:21;23.70;81.10
43346;DHT22;28937;51.160;4.146;2023-06-10T04:33:46;23.70;81.10
43346;DHT22;28937;51.160;4.146;2023-06-10T04:36:12;23.70;81.20
43346;DHT22;28937;51.160;4.146;2023-06-10T04:38:37;23.70;81.30
43346;DHT22;28937;51.160;4.146;2023-06-10T04:41:03;23.70;81.30
43346;DHT22;28937;51.160;4.146;2023-06-10T04:43:29;23.70;81.30
43346;DHT22;28937;51.160;4.146;2023-06-10T04:45:56;23.60;81.20
43346;DHT22;28937;51.160;4.146;2023-06-10T04:48:21;23.60;81.20
43346;DHT22;28937;51.160;4.146;2023-06-10T04:50:49;23.60;81.20
43346;DHT22;28937;51.160;4.146;2023-06-10T04:53:15;23.60;81.30
43346;DHT22;28937;51.160;4.146;2023-06-10T04:55:42;23.60;81.30
43346;DHT22;28937;51.160;4.146;2023-06-10T04:58:07;23.60;81.30
43346;DHT22;28937;51.160;4.146;2023-06-10T05:00:33;23.60;81.30
43346;DHT22;28937;51.160;4.146;2023-06-10T05:02:58;23.60;81.30
43346;DHT22;28937;51.160;4.146;2023-06-10T05:05:24;23.60;81.30
43346;DHT22;28937;51.160;4.146;2023-06-10T05:07:49;23.50;81.30
43346;DHT22;28937;51.160;4.146;2023-06-10T05:10:15;23.60;81.40
43346;DHT22;28937;51.160;4.146;2023-06-10T05:12:41;23.50;81.40
43346;DHT22;28937;51.160;4.146;2023-06-10T05:15:07;23.60;81.40
43346;DHT22;28937;51.160;4.146;2023-06-10T05:17:33;23.60;81.50
43346;DHT22;28937;51.160;4.146;2023-06-10T05:20:00;23.60;81.60
43346;DHT22;28937;51.160;4.146;2023-06-10T05:22:26;23.50;81.60
43346;DHT22;28937;51.160;4.146;2023-06-10T05:24:53;23.50;81.50
43346;DHT22;28937;51.160;4.146;2023-06-10T05:27:18;23.50;81.50
43346;DHT22;28937;51.160;4.146;2023-06-10T05:29:44;23.60;81.70
43346;DHT22;28937;51.160;4.146;2023-06-10T05:32:11;23.60;81.80
43346;DHT22;28937;51.160;4.146;2023-06-10T05:34:36;23.50;81.80
43346;DHT22;28937;51.160;4.146;2023-06-10T05:37:02;23.50;82.00
43346;DHT22;28937;51.160;4.146;2023-06-10T05:39:28;23.60;81.80
43346;DHT22;28937;51.160;4.146;2023-06-10T05:41:54;23.60;81.70
43346;DHT22;28937;51.160;4.146;2023-06-10T05:44:19;23.70;82.50
43346;DHT22;28937;51.160;4.146;2023-06-10T05:46:45;23.70;82.30
43346;DHT22;28937;51.160;4.146;2023-06-10T05:49:11;23.70;82.00
43346;DHT22;28937;51.160;4.146;2023-06-10T05:51:36;23.80;82.00
43346;DHT22;28937;51.160;4.146;2023-06-10T05:54:02;23.80;81.90
43346;DHT22;28937;51.160;4.146;2023-06-10T05:56:28;23.80;82.10
43346;DHT22;28937;51.160;4.146;2023-06-10T05:58:54;23.80;82.00
43346;DHT22;28937;51.160;4.146;2023-06-10T06:01:19;23.90;82.20
43346;DHT22;28937;51.160;4.146;2023-06-10T06:03:45;23.90;82.20
43346;DHT22;28937;51.160;4.146;2023-06-10T06:06:10;23.90;82.20
43346;DHT22;28937;51.160;4.146;2023-06-10T06:08:36;24.00;82.20
43346;DHT22;28937;51.160;4.146;2023-06-10T06:11:02;24.00;82.10
43346;DHT22;28937;51.160;4.146;2023-06-10T06:13:27;24.00;82.20
43346;DHT22;28937;51.160;4.146;2023-06-10T06:15:53;24.00;82.20
43346;DHT22;28937;51.160;4.146;2023-06-10T06:18:18;24.10;82.10
43346;DHT22;28937;51.160;4.146;2023-06-10T06:20:44;24.10;82.20
43346;DHT22;28937;51.160;4.146;2023-06-10T06:23:10;24.10;82.10
43346;DHT22;28937;51.160;4.146;2023-06-10T06:25:36;24.20;82.00
43346;DHT22;28937;51.160;4.146;2023-06-10T06:28:07;24.20;82.00
43346;DHT22;28937;51.160;4.146;2023-06-10T06:30:34;24.20;81.90
43346;DHT22;28937;51.160;4.146;2023-06-10T06:33:00;24.30;82.00
43346;DHT22;28937;51.160;4.146;2023-06-10T06:35:26;24.30;82.00
43346;DHT22;28937;51.160;4.146;2023-06-10T06:37:51;24.40;81.40
43346;DHT22;28937;51.160;4.146;2023-06-10T06:40:17;24.50;80.30
43346;DHT22;28937;51.160;4.146;2023-06-10T06:42:42;24.60;79.90
43346;DHT22;28937;51.160;4.146;2023-06-10T06:45:08;24.70;79.60
43346;DHT22;28937;51.160;4.146;2023-06-10T06:47:34;24.80;79.50
43346;DHT22;28937;51.160;4.146;2023-06-10T06:49:59;24.90;79.30
43346;DHT22;28937;51.160;4.146;2023-06-10T06:52:25;25.00;79.30
43346;DHT22;28937;51.160;4.146;2023-06-10T06:54:50;25.10;78.80
43346;DHT22;28937;51.160;4.146;2023-06-10T06:57:16;25.20;78.70
43346;DHT22;28937;51.160;4.146;2023-06-10T06:59:41;25.30;79.10
43346;DHT22;28937;51.160;4.146;2023-06-10T07:02:07;25.30;78.60
43346;DHT22;28937;51.160;4.146;2023-06-10T07:04:33;25.40;78.40
43346;DHT22;28937;51.160;4.146;2023-06-10T07:06:58;25.50;78.20
43346;DHT22;28937;51.160;4.146;2023-06-10T07:09:24;25.60;77.80
43346;DHT22;28937;51.160;4.146;2023-06-10T07:11:50;25.70;77.90
43346;DHT22;28937;51.160;4.146;2023-06-10T07:14:15;25.70;78.10
43346;DHT22;28937;51.160;4.146;2023-06-10T07:16:41;25.80;78.00
43346;DHT22;28937;51.160;4.146;2023-06-10T07:19:06;25.90;77.00
43346;DHT22;28937;51.160;4.146;2023-06-10T07:21:33;26.00;77.40
43346;DHT22;28937;51.160;4.146;2023-06-10T07:23:59;26.00;77.20
43346;DHT22;28937;51.160;4.146;2023-06-10T07:26:25;26.10;77.00
43346;DHT22;28937;51.160;4.146;2023-06-10T07:28:51;26.20;76.20
43346;DHT22;28937;51.160;4.146;2023-06-10T07:31:17;26.20;76.30
43346;DHT22;28937;51.160;4.146;2023-06-10T07:33:42;26.30;76.20
43346;DHT22;28937;51.160;4.146;2023-06-10T07:36:09;26.40;76.00
43346;DHT22;28937;51.160;4.146;2023-06-10T07:38:35;26.50;76.10
43346;DHT22;28937;51.160;4.146;2023-06-10T07:41:01;26.60;76.10
43346;DHT22;28937;51.160;4.146;2023-06-10T07:43:26;26.60;76.10
43346;DHT22;28937;51.160;4.146;2023-06-10T07:45:52;26.70;75.50
43346;DHT22;28937;51.160;4.146;2023-06-10T07:48:18;26.70;75.40
43346;DHT22;28937;51.160;4.146;2023-06-10T07:50:43;26.90;75.20
43346;DHT22;28937;51.160;4.146;2023-06-10T07:53:09;27.00;74.80
43346;DHT22;28937;51.160;4.146;2023-06-10T07:55:35;26.90;74.80
43346;DHT22;28937;51.160;4.146;2023-06-10T07:58:00;27.00;74.90
43346;DHT22;28937;51.160;4.146;2023-06-10T08:00:26;27.00;76.30
43346;DHT22;28937;51.160;4.146;2023-06-10T08:02:52;27.00;75.40
43346;DHT22;28937;51.160;4.146;2023-06-10T08:05:18;27.10;74.80
43346;DHT22;28937;51.160;4.146;2023-06-10T08:07:45;27.20;74.30
43346;DHT22;28937;51.160;4.146;2023-06-10T08:10:10;27.20;74.30
43346;DHT22;28937;51.160;4.146;2023-06-10T08:12:36;27.30;74.90
43346;DHT22;28937;51.160;4.146;2023-06-10T08:15:02;27.30;74.90
43346;DHT22;28937;51.160;4.146;2023-06-10T08:17:31;27.30;75.90
43346;DHT22;28937;51.160;4.146;2023-06-10T08:19:57;27.30;74.30
43346;DHT22;28937;51.160;4.146;2023-06-10T08:22:22;27.40;73.00
43346;DHT22;28937;51.160;4.146;2023-06-10T08:24:48;27.50;73.00
43346;DHT22;28937;51.160;4.146;2023-06-10T08:27:14;27.50;73.80
43346;DHT22;28937;51.160;4.146;2023-06-10T08:29:40;27.70;73.10
43346;DHT22;28937;51.160;4.146;2023-06-10T08:32:06;27.60;74.20
43346;DHT22;28937;51.160;4.146;2023-06-10T08:34:35;27.70;73.50
43346;DHT22;28937;51.160;4.146;2023-06-10T08:37:01;27.70;71.10
43346;DHT22;28937;51.160;4.146;2023-06-10T08:39:27;27.80;70.90
43346;DHT22;28937;51.160;4.146;2023-06-10T08:44:49;27.90;73.20
43346;DHT22;28937;51.160;4.146;2023-06-10T08:47:19;28.00;71.00
43346;DHT22;28937;51.160;4.146;2023-06-10T08:49:47;28.00;75.10
43346;DHT22;28937;51.160;4.146;2023-06-10T08:52:18;28.00;71.90
43346;DHT22;28937;51.160;4.146;2023-06-10T08:54:57;28.10;70.30
43346;DHT22;28937;51.160;4.146;2023-06-10T08:57:25;28.10;70.80
43346;DHT22;28937;51.160;4.146;2023-06-10T08:59:53;28.20;69.50
43346;DHT22;28937;51.160;4.146;2023-06-10T09:02:20;28.30;69.50
43346;DHT22;28937;51.160;4.146;2023-06-10T09:04:47;28.30;68.80
43346;DHT22;28937;51.160;4.146;2023-06-10T09:07:15;28.30;73.20
43346;DHT22;28937;51.160;4.146;2023-06-10T09:09:43;28.30;71.30
43346;DHT22;28937;51.160;4.146;2023-06-10T09:12:09;28.30;68.80
43346;DHT22;28937;51.160;4.146;2023-06-10T09:14:36;28.40;68.50
43346;DHT22;28937;51.160;4.146;2023-06-10T09:17:02;28.40;68.60
43346;DHT22;28937;51.160;4.146;2023-06-10T09:19:29;28.40;70.60
43346;DHT22;28937;51.160;4.146;2023-06-10T09:21:54;28.40;72.60
43346;DHT22;28937;51.160;4.146;2023-06-10T09:24:24;28.40;69.00
43346;DHT22;28937;51.160;4.146;2023-06-10T09:26:50;28.50;68.50
43346;DHT22;28937;51.160;4.146;2023-06-10T09:29:17;28.50;68.00
43346;DHT22;28937;51.160;4.146;2023-06-10T09:31:43;28.50;70.50
43346;DHT22;28937;51.160;4.146;2023-06-10T09:34:11;28.60;69.30
43346;DHT22;28937;51.160;4.146;2023-06-10T09:36:38;28.50;70.50
43346;DHT22;28937;51.160;4.146;2023-06-10T09:39:04;28.50;71.90
43346;DHT22;28937;51.160;4.146;2023-06-10T09:41:40;28.40;70.50
43346;DHT22;28937;51.160;4.146;2023-06-10T09:44:15;28.40;71.70
43346;DHT22;28937;51.160;4.146;2023-06-10T09:46:42;28.40;71.40
43346;DHT22;28937;51.160;4.146;2023-06-10T09:49:08;28.40;72.40
43346;DHT22;28937;51.160;4.146;2023-06-10T09:51:33;28.40;70.50
43346;DHT22;28937;51.160;4.146;2023-06-10T09:54:05;28.50;69.30
43346;DHT22;28937;51.160;4.146;2023-06-10T09:56:36;28.50;68.40
43346;DHT22;28937;51.160;4.146;2023-06-10T09:59:03;28.60;68.00
43346;DHT22;28937;51.160;4.146;2023-06-10T10:01:30;28.60;67.70
43346;DHT22;28937;51.160;4.146;2023-06-10T10:03:56;28.60;67.60
43346;DHT22;28937;51.160;4.146;2023-06-10T10:06:22;28.70;68.20
43346;DHT22;28937;51.160;4.146;2023-06-10T10:08:49;28.60;67.60
43346;DHT22;28937;51.160;4.146;2023-06-10T10:11:18;28.60;69.10
43346;DHT22;28937;51.160;4.146;2023-06-10T10:13:45;28.60;68.40
43346;DHT22;28937;51.160;4.146;2023-06-10T10:16:16;28.60;69.80
43346;DHT22;28937;51.160;4.146;2023-06-10T10:18:45;28.60;69.70
43346;DHT22;28937;51.160;4.146;2023-06-10T10:21:13;28.60;66.10
43346;DHT22;28937;51.160;4.146;2023-06-10T10:23:58;28.60;67.80
43346;DHT22;28937;51.160;4.146;2023-06-10T10:26:26;28.70;65.70
43346;DHT22;28937;51.160;4.146;2023-06-10T10:29:02;28.60;69.40
43346;DHT22;28937;51.160;4.146;2023-06-10T10:31:32;28.60;69.90
43346;DHT22;28937;51.160;4.146;2023-06-10T10:34:04;28.60;70.70
43346;DHT22;28937;51.160;4.146;2023-06-10T10:36:30;28.60;69.70
43346;DHT22;28937;51.160;4.146;2023-06-10T10:38:57;28.60;68.40
43346;DHT22;28937;51.160;4.146;2023-06-10T10:41:24;28.70;65.70
43346;DHT22;28937;51.160;4.146;2023-06-10T10:43:52;28.70;66.00
43346;DHT22;28937;51.160;4.146;2023-06-10T10:46:18;28.70;67.20
43346;DHT22;28937;51.160;4.146;2023-06-10T10:48:44;28.80;65.50
43346;DHT22;28937;51.160;4.146;2023-06-10T10:51:11;28.70;64.80
43346;DHT22;28937;51.160;4.146;2023-06-10T10:53:37;28.80;64.60
43346;DHT22;28937;51.160;4.146;2023-06-10T10:56:12;28.80;65.00
43346;DHT22;28937;51.160;4.146;2023-06-10T10:58:38;28.90;64.70
43346;DHT22;28937;51.160;4.146;2023-06-10T11:01:14;28.90;65.50
43346;DHT22;28937;51.160;4.146;2023-06-10T11:03:44;28.90;63.70
43346;DHT22;28937;51.160;4.146;2023-06-10T11:06:14;28.90;63.90
43346;DHT22;28937;51.160;4.146;2023-06-10T11:11:25;28.90;64.20
43346;DHT22;28937;51.160;4.146;2023-06-10T11:16:28;28.80;69.20
43346;DHT22;28937;51.160;4.146;2023-06-10T11:18:54;28.70;71.80
43346;DHT22;28937;51.160;4.146;2023-06-10T11:21:21;28.70;68.60
43346;DHT22;28937;51.160;4.146;2023-06-10T11:23:50;28.70;68.60
43346;DHT22;28937;51.160;4.146;2023-06-10T11:31:23;28.70;69.70
43346;DHT22;28937;51.160;4.146;2023-06-10T11:33:59;28.70;71.00
43346;DHT22;28937;51.160;4.146;2023-06-10T11:36:26;28.60;69.70
43346;DHT22;28937;51.160;4.146;2023-06-10T11:39:03;28.60;66.20
43346;DHT22;28937;51.160;4.146;2023-06-10T11:41:30;28.60;69.20
43346;DHT22;28937;51.160;4.146;2023-06-10T11:43:59;28.70;63.40
43346;DHT22;28937;51.160;4.146;2023-06-10T11:46:26;28.70;66.30
43346;DHT22;28937;51.160;4.146;2023-06-10T11:48:57;28.80;63.50
43346;DHT22;28937;51.160;4.146;2023-06-10T11:51:29;28.80;62.20
43346;DHT22;28937;51.160;4.146;2023-06-10T11:53:55;28.90;62.70
43346;DHT22;28937;51.160;4.146;2023-06-10T11:56:27;28.80;63.20
43346;DHT22;28937;51.160;4.146;2023-06-10T11:58:55;28.90;63.70
43346;DHT22;28937;51.160;4.146;2023-06-10T12:01:24;28.90;62.10
43346;DHT22;28937;51.160;4.146;2023-06-10T12:04:02;28.90;61.10
43346;DHT22;28937;51.160;4.146;2023-06-10T12:06:41;28.90;60.50
43346;DHT22;28937;51.160;4.146;2023-06-10T12:09:17;28.90;63.40
43346;DHT22;28937;51.160;4.146;2023-06-10T12:11:43;29.00;60.60
43346;DHT22;28937;51.160;4.146;2023-06-10T12:14:09;29.00;61.00
43346;DHT22;28937;51.160;4.146;2023-06-10T12:16:35;29.00;61.10
43346;DHT22;28937;51.160;4.146;2023-06-10T12:19:04;29.00;61.90
43346;DHT22;28937;51.160;4.146;2023-06-10T12:21:32;29.00;61.10
43346;DHT22;28937;51.160;4.146;2023-06-10T12:26:54;28.90;68.90
43346;DHT22;28937;51.160;4.146;2023-06-10T12:29:22;28.90;63.60
43346;DHT22;28937;51.160;4.146;2023-06-10T12:31:53;28.90;61.60
43346;DHT22;28937;51.160;4.146;2023-06-10T12:34:19;28.90;61.40
43346;DHT22;28937;51.160;4.146;2023-06-10T12:36:51;28.90;67.00
43346;DHT22;28937;51.160;4.146;2023-06-10T12:39:17;28.90;62.40
43346;DHT22;28937;51.160;4.146;2023-06-10T12:41:50;28.90;63.50
43346;DHT22;28937;51.160;4.146;2023-06-10T12:44:16;28.90;61.70
43346;DHT22;28937;51.160;4.146;2023-06-10T12:46:42;28.90;63.20
43346;DHT22;28937;51.160;4.146;2023-06-10T12:49:07;28.90;62.70
43346;DHT22;28937;51.160;4.146;2023-06-10T12:51:33;28.90;62.10
43346;DHT22;28937;51.160;4.146;2023-06-10T12:54:00;28.90;63.30
43346;DHT22;28937;51.160;4.146;2023-06-10T12:56:26;28.90;61.10
43346;DHT22;28937;51.160;4.146;2023-06-10T12:58:51;28.90;60.70
43346;DHT22;28937;51.160;4.146;2023-06-10T13:01:17;29.00;60.70
43346;DHT22;28937;51.160;4.146;2023-06-10T13:03:42;29.00;63.50
43346;DHT22;28937;51.160;4.146;2023-06-10T13:06:08;29.00;62.80
43346;DHT22;28937;51.160;4.146;2023-06-10T13:08:34;29.00;65.30
43346;DHT22;28937;51.160;4.146;2023-06-10T13:10:59;28.90;68.20
43346;DHT22;28937;51.160;4.146;2023-06-10T13:13:25;28.90;62.60
43346;DHT22;28937;51.160;4.146;2023-06-10T13:15:51;28.90;61.30
43346;DHT22;28937;51.160;4.146;2023-06-10T13:18:17;28.80;64.40
43346;DHT22;28937;51.160;4.146;2023-06-10T13:20:45;28.90;61.10
43346;DHT22;28937;51.160;4.146;2023-06-10T13:23:11;28.80;67.50
43346;DHT22;28937;51.160;4.146;2023-06-10T13:25:36;28.80;63.00
43346;DHT22;28937;51.160;4.146;2023-06-10T13:28:02;28.90;60.80
43346;DHT22;28937;51.160;4.146;2023-06-10T13:30:28;28.90;61.20
43346;DHT22;28937;51.160;4.146;2023-06-10T13:32:54;28.90;61.40
43346;DHT22;28937;51.160;4.146;2023-06-10T13:35:19;28.90;64.40
43346;DHT22;28937;51.160;4.146;2023-06-10T13:37:45;28.80;67.10
43346;DHT22;28937;51.160;4.146;2023-06-10T13:40:11;28.80;61.70
43346;DHT22;28937;51.160;4.146;2023-06-10T13:42:37;28.90;60.40
43346;DHT22;28937;51.160;4.146;2023-06-10T13:45:04;28.90;64.30
43346;DHT22;28937;51.160;4.146;2023-06-10T13:47:30;28.80;67.50
43346;DHT22;28937;51.160;4.146;2023-06-10T13:49:55;28.80;63.30
43346;DHT22;28937;51.160;4.146;2023-06-10T13:52:21;28.80;67.20
43346;DHT22;28937;51.160;4.146;2023-06-10T13:54:46;28.80;61.30
43346;DHT22;28937;51.160;4.146;2023-06-10T13:57:12;28.80;61.90
43346;DHT22;28937;51.160;4.146;2023-06-10T13:59:37;28.90;60.70
43346;DHT22;28937;51.160;4.146;2023-06-10T14:02:03;28.90;63.10
43346;DHT22;28937;51.160;4.146;2023-06-10T14:04:29;28.90;63.20
43346;DHT22;28937;51.160;4.146;2023-06-10T14:06:54;29.00;61.10
43346;DHT22;28937;51.160;4.146;2023-06-10T14:09:20;29.00;60.60
43346;DHT22;28937;51.160;4.146;2023-06-10T14:11:46;29.00;59.60
43346;DHT22;28937;51.160;4.146;2023-06-10T14:14:13;29.00;59.40
43346;DHT22;28937;51.160;4.146;2023-06-10T14:16:40;29.00;59.30
43346;DHT22;28937;51.160;4.146;2023-06-10T14:19:06;29.00;59.20
43346;DHT22;28937;51.160;4.146;2023-06-10T14:21:31;29.10;59.10
43346;DHT22;28937;51.160;4.146;2023-06-10T14:23:57;29.10;61.30
43346;DHT22;28937;51.160;4.146;2023-06-10T14:26:23;29.00;65.90
43346;DHT22;28937;51.160;4.146;2023-06-10T14:28:49;29.00;63.10
43346;DHT22;28937;51.160;4.146;2023-06-10T14:31:15;29.00;63.50
43346;DHT22;28937;51.160;4.146;2023-06-10T14:33:41;28.90;63.60
43346;DHT22;28937;51.160;4.146;2023-06-10T14:36:09;29.00;61.70
43346;DHT22;28937;51.160;4.146;2023-06-10T14:38:35;29.00;60.60
43346;DHT22;28937;51.160;4.146;2023-06-10T14:41:01;29.00;61.20
43346;DHT22;28937;51.160;4.146;2023-06-10T14:43:26;29.00;60.40
43346;DHT22;28937;51.160;4.146;2023-06-10T14:45:52;29.00;63.10
43346;DHT22;28937;51.160;4.146;2023-06-10T14:48:17;29.10;62.10
43346;DHT22;28937;51.160;4.146;2023-06-10T14:50:43;29.10;60.60
43346;DHT22;28937;51.160;4.146;2023-06-10T14:53:12;29.00;66.70
43346;DHT22;28937;51.160;4.146;2023-06-10T14:55:37;29.00;63.20
43346;DHT22;28937;51.160;4.146;2023-06-10T14:58:03;29.00;61.20
43346;DHT22;28937;51.160;4.146;2023-06-10T15:00:28;29.10;61.80
43346;DHT22;28937;51.160;4.146;2023-06-10T15:02:54;29.00;64.10
43346;DHT22;28937;51.160;4.146;2023-06-10T15:05:23;29.00;65.50
43346;DHT22;28937;51.160;4.146;2023-06-10T15:07:48;29.00;64.50
43346;DHT22;28937;51.160;4.146;2023-06-10T15:10:14;29.00;65.70
43346;DHT22;28937;51.160;4.146;2023-06-10T15:12:41;29.00;64.50
43346;DHT22;28937;51.160;4.146;2023-06-10T15:15:07;29.00;63.70
43346;DHT22;28937;51.160;4.146;2023-06-10T15:17:33;29.00;62.60
43346;DHT22;28937;51.160;4.146;2023-06-10T15:19:58;29.00;60.60
43346;DHT22;28937;51.160;4.146;2023-06-10T15:22:24;29.00;60.60
43346;DHT22;28937;51.160;4.146;2023-06-10T15:24:49;29.10;59.80
43346;DHT22;28937;51.160;4.146;2023-06-10T15:27:15;29.10;59.60
43346;DHT22;28937;51.160;4.146;2023-06-10T15:29:41;29.10;61.40
43346;DHT22;28937;51.160;4.146;2023-06-10T15:32:07;29.10;59.40
43346;DHT22;28937;51.160;4.146;2023-06-10T15:34:32;29.10;60.90
43346;DHT22;28937;51.160;4.146;2023-06-10T15:36:58;29.20;59.60
43346;DHT22;28937;51.160;4.146;2023-06-10T15:39:24;29.20;59.70
43346;DHT22;28937;51.160;4.146;2023-06-10T15:41:51;29.10;62.00
43346;DHT22;28937;51.160;4.146;2023-06-10T15:44:16;29.10;62.20
43346;DHT22;28937;51.160;4.146;2023-06-10T15:46:42;29.10;59.60
43346;DHT22;28937;51.160;4.146;2023-06-10T15:49:08;29.10;59.30